Time;durP1;ratioP1;P1;durP2;ratioP2;P2;SDS_P1;SDS_P2;PMS_P1;PMS_P2;Temp;Humidity;BMP_temperature;BMP_pressure;BME280_temperature;BME280_humidity;BME280_pressure;Samples;Min_cycle;Max_cycle;Signal;HPM_P1;HPM_P2
2022/11/14 00:01:06;;;;;;;9.80;3.20;;;;;;;11.78;70.15;102097.50;2033508;29;20409;-68
2022/11/14 00:02:27;;;;;;;5.10;2.58;;;;;;;11.76;70.24;102108.56;2039845;29;20051;-68
2022/11/14 00:03:51;;;;;;;8.68;3.17;;;;;;;11.77;70.36;102095.88;2041038;29;20064;-68
2022/11/14 00:05:15;;;;;;;9.25;2.90;;;;;;;11.77;70.37;102099.41;2040327;29;20043;-68
2022/11/14 00:06:36;;;;;;;9.50;2.92;;;;;;;11.76;70.45;102092.38;2040988;29;20070;-68
2022/11/14 00:07:59;;;;;;;6.80;2.85;;;;;;;11.78;70.45;102089.44;2040361;29;20044;-68
2022/11/14 00:09:20;;;;;;;8.18;3.20;;;;;;;11.78;70.41;102092.13;2034135;29;20040;-68
2022/11/14 00:10:42;;;;;;;9.07;3.22;;;;;;;11.76;70.49;102087.00;2032430;29;20051;-68
2022/11/14 00:12:04;;;;;;;8.85;2.80;;;;;;;11.75;70.24;102090.72;2032417;29;20047;-68
2022/11/14 00:13:25;;;;;;;6.78;3.10;;;;;;;11.74;70.49;102088.31;2039892;29;20051;-68
2022/11/14 00:14:49;;;;;;;5.05;3.17;;;;;;;11.73;70.34;102092.88;2040809;29;20388;-68
2022/11/14 00:16:09;;;;;;;7.07;3.00;;;;;;;11.71;70.67;102089.59;2040206;29;20040;-68
2022/11/14 00:17:30;;;;;;;5.60;3.00;;;;;;;11.68;70.83;102082.03;2034945;29;20056;-68
2022/11/14 00:18:51;;;;;;;8.98;2.60;;;;;;;11.69;70.74;102091.72;2040360;29;20051;-68
2022/11/14 00:20:17;;;;;;;6.68;3.08;;;;;;;11.68;70.81;102089.28;2034851;29;20044;-68
2022/11/14 00:21:40;;;;;;;8.38;3.35;;;;;;;11.67;70.83;102084.97;2040548;29;20039;-68
2022/11/14 00:23:03;;;;;;;7.50;2.80;;;;;;;11.64;70.89;102078.19;2040384;29;20534;-68
2022/11/14 00:24:26;;;;;;;9.90;3.42;;;;;;;11.65;71.00;102084.41;2036569;29;20043;-68
2022/11/14 00:25:48;;;;;;;10.63;4.00;;;;;;;11.64;71.21;102083.59;2040180;29;20047;-68
2022/11/14 00:27:12;;;;;;;5.80;3.20;;;;;;;11.65;71.19;102085.22;2035609;29;20063;-68
2022/11/14 00:28:33;;;;;;;12.15;3.47;;;;;;;11.66;71.29;102091.41;2040593;29;20050;-68
2022/11/14 00:29:56;;;;;;;8.43;2.90;;;;;;;11.67;71.43;102091.19;2040087;29;20046;-69
2022/11/14 00:31:17;;;;;;;8.82;3.30;;;;;;;11.70;71.65;102082.59;2040370;29;20502;-68
2022/11/14 00:32:43;;;;;;;9.10;3.38;;;;;;;11.72;71.77;102079.66;2040197;29;20535;-68
2022/11/14 00:34:04;;;;;;;7.50;3.35;;;;;;;11.72;72.01;102083.16;2038121;29;20384;-68
2022/11/14 00:35:25;;;;;;;5.45;3.42;;;;;;;11.72;72.16;102079.66;2040473;29;20070;-68
2022/11/14 00:36:47;;;;;;;10.38;3.70;;;;;;;11.72;72.12;102075.06;2040829;29;20044;-69
2022/11/14 00:38:08;;;;;;;6.22;3.35;;;;;;;11.73;72.50;102079.41;2040333;29;20036;-68
2022/11/14 00:39:29;;;;;;;11.13;4.10;;;;;;;11.69;72.55;102070.16;2039328;29;20070;-68
2022/11/14 00:40:53;;;;;;;6.38;3.25;;;;;;;11.70;72.65;102071.81;2032193;29;20032;-68
2022/11/14 00:42:17;;;;;;;9.68;3.75;;;;;;;11.70;72.78;102065.63;2033179;29;20055;-68
2022/11/14 00:43:46;;;;;;;8.38;3.17;;;;;;;11.66;72.67;102065.28;2040832;29;20114;-69
2022/11/14 00:45:09;;;;;;;7.80;4.13;;;;;;;11.64;72.77;102064.72;2041693;29;20031;-68
2022/11/14 00:46:33;;;;;;;11.95;4.53;;;;;;;11.64;72.92;102066.63;2040985;29;20055;-68
2022/11/14 00:47:57;;;;;;;11.05;3.95;;;;;;;11.61;72.88;102059.84;2039193;29;20031;-68
2022/11/14 00:49:17;;;;;;;20.15;4.05;;;;;;;11.59;72.94;102065.47;2035668;29;20052;-68
2022/11/14 00:50:38;;;;;;;22.15;4.57;;;;;;;11.58;73.18;102057.66;2043861;29;20035;-68
2022/11/14 00:52:01;;;;;;;10.00;4.00;;;;;;;11.56;73.17;102070.53;2043825;29;20074;-68
2022/11/14 00:53:30;;;;;;;9.40;4.00;;;;;;;11.56;73.33;102057.88;2040563;29;20055;-69
2022/11/14 00:54:51;;;;;;;11.70;3.95;;;;;;;11.56;73.32;102070.53;2031205;29;20043;-68
2022/11/14 00:56:13;;;;;;;9.00;3.53;;;;;;;11.52;73.26;102066.72;2031751;29;20048;-68
2022/11/14 00:57:34;;;;;;;10.20;4.40;;;;;;;11.51;73.28;102063.22;2040233;29;20036;-68
2022/11/14 00:58:55;;;;;;;10.27;3.80;;;;;;;11.51;73.58;102065.91;2032257;29;20047;-68
2022/11/14 01:00:21;;;;;;;13.02;4.63;;;;;;;11.52;73.65;102069.41;2024613;29;20048;-68
2022/11/14 01:01:41;;;;;;;10.73;4.30;;;;;;;11.53;73.66;102073.72;2027044;29;20040;-68
2022/11/14 01:03:03;;;;;;;9.23;3.75;;;;;;;11.52;73.55;102072.91;2037402;29;20055;-68
2022/11/14 01:04:23;;;;;;;10.52;4.43;;;;;;;11.52;73.50;102070.22;2040627;29;20391;-68
2022/11/14 01:05:46;;;;;;;9.80;4.10;;;;;;;11.52;73.48;102067.53;2032638;29;20040;-69
2022/11/14 01:07:07;;;;;;;13.20;4.13;;;;;;;11.51;73.36;102063.22;2033021;29;20055;-69
2022/11/14 01:08:28;;;;;;;10.57;4.30;;;;;;;11.49;73.31;102068.00;2038200;29;20035;-69
2022/11/14 01:09:51;;;;;;;9.57;4.20;;;;;;;11.43;73.31;102060.94;2040069;29;20047;-69
2022/11/14 01:11:17;;;;;;;8.50;3.85;;;;;;;11.43;73.33;102062.81;2033219;29;20047;-69
2022/11/14 01:12:38;;;;;;;10.05;3.53;;;;;;;11.41;73.08;102054.16;2038821;29;20056;-69
2022/11/14 01:14:04;;;;;;;7.70;3.83;;;;;;;11.43;73.33;102057.41;2040882;29;20051;-69
2022/11/14 01:15:24;;;;;;;9.13;4.32;;;;;;;11.41;73.28;102057.66;2033325;29;20534;-69
2022/11/14 01:16:45;;;;;;;13.40;4.38;;;;;;;11.40;72.81;102052.53;2038290;29;20050;-69
2022/11/14 01:18:06;;;;;;;8.75;3.67;;;;;;;11.37;73.00;102051.13;2040734;29;20035;-70
2022/11/14 01:19:29;;;;;;;14.93;4.63;;;;;;;11.37;72.94;102051.13;2041057;29;20509;-70
2022/11/14 01:20:53;;;;;;;10.10;4.03;;;;;;;11.39;73.07;102045.53;2041136;29;20052;-69
2022/11/14 01:22:14;;;;;;;9.80;3.80;;;;;;;11.38;72.74;102044.72;2041740;29;20040;-70
2022/11/14 01:23:37;;;;;;;15.07;5.13;;;;;;;11.39;72.80;102048.22;2041067;29;20385;-69
2022/11/14 01:25:03;;;;;;;9.35;4.40;;;;;;;11.37;72.73;102040.38;2039764;29;20066;-69
2022/11/14 01:26:24;;;;;;;10.18;3.97;;;;;;;11.33;72.76;102042.75;2038593;29;20054;-69
2022/11/14 01:27:46;;;;;;;9.07;4.65;;;;;;;11.32;72.95;102043.81;2041486;29;20047;-69
2022/11/14 01:29:09;;;;;;;10.40;4.30;;;;;;;11.33;73.34;102044.63;2032206;29;20501;-69
2022/11/14 01:30:32;;;;;;;8.13;4.18;;;;;;;11.33;73.29;102040.06;2032300;29;20043;-70
2022/11/14 01:31:55;;;;;;;13.20;4.57;;;;;;;11.30;73.11;102034.34;2040145;29;20035;-69
2022/11/14 01:33:19;;;;;;;12.40;4.65;;;;;;;11.30;73.29;102040.53;2039773;29;20515;-69
2022/11/14 01:34:43;;;;;;;9.50;4.15;;;;;;;11.30;73.20;102039.72;2039842;29;20056;-69
2022/11/14 01:36:05;;;;;;;6.85;4.25;;;;;;;11.30;73.88;102035.16;2037448;29;20039;-70
2022/11/14 01:37:26;;;;;;;11.07;4.60;;;;;;;11.30;73.32;102035.16;2034592;29;20043;-69
2022/11/14 01:38:53;;;;;;;12.90;4.90;;;;;;;11.30;73.63;102034.34;2042483;29;20071;-69
2022/11/14 01:40:20;;;;;;;10.27;4.55;;;;;;;11.31;73.52;102036.78;2030924;29;20048;-69
2022/11/14 01:41:43;;;;;;;12.27;4.65;;;;;;;11.30;73.58;102037.03;2033184;29;20138;-70
2022/11/14 01:43:15;;;;;;;9.32;4.53;;;;;;;11.30;73.34;102039.72;2041038;29;20477;-70
2022/11/14 01:44:51;;;;;;;15.25;4.88;;;;;;;11.29;73.30;102032.72;2040986;29;20044;-69
2022/11/14 01:46:22;;;;;;;10.43;5.28;;;;;;;11.28;73.63;102042.66;2032976;29;20040;-70
2022/11/14 01:47:48;;;;;;;10.55;4.65;;;;;;;11.23;73.17;102033.72;2043953;29;20515;-69
2022/11/14 01:49:13;;;;;;;8.38;4.00;;;;;;;11.22;72.98;102038.25;2041055;29;20055;-69
2022/11/14 01:50:35;;;;;;;10.93;4.40;;;;;;;11.23;73.22;102034.53;2038678;29;20048;-69
2022/11/14 01:52:10;;;;;;;10.57;5.28;;;;;;;11.22;72.65;102032.88;2040431;29;20039;-70
2022/11/14 01:53:31;;;;;;;11.00;4.15;;;;;;;11.20;72.78;102026.94;2037381;29;20043;-70
2022/11/14 01:54:53;;;;;;;6.85;3.83;;;;;;;11.18;72.62;102029.06;2040152;29;20039;-69
2022/11/14 01:56:18;;;;;;;7.60;3.40;;;;;;;11.17;72.31;102030.13;2040850;29;20043;-69
2022/11/14 01:57:47;;;;;;;6.18;3.28;;;;;;;11.16;71.71;102023.13;2041054;29;20047;-69
2022/11/14 01:59:10;;;;;;;13.82;3.97;;;;;;;11.14;72.11;102015.28;2041236;29;20035;-69
2022/11/14 02:00:32;;;;;;;6.38;3.33;;;;;;;11.11;71.73;102018.44;2040322;29;20334;-70
2022/11/14 02:01:55;;;;;;;7.18;3.53;;;;;;;11.13;71.36;102016.34;2040508;29;20039;-69
2022/11/14 02:03:16;;;;;;;5.43;2.85;;;;;;;11.14;71.47;102012.56;2039831;29;20059;-71
2022/11/14 02:04:42;;;;;;;6.80;3.47;;;;;;;11.16;71.61;102011.50;2040241;29;20693;-70
2022/11/14 02:06:08;;;;;;;4.72;3.03;;;;;;;11.16;71.03;102001.59;2039756;29;20050;-69
2022/11/14 02:07:36;;;;;;;5.65;2.83;;;;;;;11.14;71.02;101995.63;2040376;29;20051;-69
2022/11/14 02:09:05;;;;;;;8.10;2.95;;;;;;;11.16;71.13;101995.34;2040391;29;20039;-69
2022/11/14 02:10:28;;;;;;;9.88;2.88;;;;;;;11.17;70.87;101997.00;2039169;29;20471;-69
2022/11/14 02:11:56;;;;;;;7.47;3.13;;;;;;;11.19;70.93;101995.69;2039722;29;20058;-69
2022/11/14 02:13:20;;;;;;;4.78;2.80;;;;;;;11.18;70.83;101991.38;2041310;29;20468;-69
2022/11/14 02:14:46;;;;;;;5.45;2.55;;;;;;;11.19;70.56;101986.78;2041348;29;20546;-69
2022/11/14 02:16:07;;;;;;;6.10;3.15;;;;;;;11.17;70.78;101980.84;2041543;29;20055;-69
2022/11/14 02:17:34;;;;;;;5.43;2.47;;;;;;;11.19;70.30;101982.25;2040819;29;20046;-69
2022/11/14 02:18:58;;;;;;;6.57;2.80;;;;;;;11.18;70.32;101979.78;2040954;29;20044;-69
2022/11/14 02:20:27;;;;;;;7.97;2.78;;;;;;;11.20;70.11;101983.06;2041560;29;20236;-69
2022/11/14 02:21:50;;;;;;;3.83;2.10;;;;;;;11.16;70.25;101979.19;2040722;29;20036;-69
2022/11/14 02:23:12;;;;;;;4.50;2.22;;;;;;;11.14;70.31;101974.91;2041038;29;20048;-70
2022/11/14 02:24:33;;;;;;;5.10;2.42;;;;;;;11.13;70.34;101980.53;2041926;29;20043;-69
2022/11/14 02:25:53;;;;;;;4.68;2.33;;;;;;;11.13;70.16;101975.16;2041827;29;20039;-69
2022/11/14 02:27:15;;;;;;;7.25;3.25;;;;;;;11.14;70.16;101972.19;2042311;29;20438;-69
2022/11/14 02:28:38;;;;;;;4.20;1.92;;;;;;;11.12;70.27;101973.50;2042614;29;20043;-69
2022/11/14 02:30:10;;;;;;;5.68;2.38;;;;;;;11.12;70.29;101978.88;2042750;29;20035;-69
2022/11/14 02:31:33;;;;;;;3.85;2.17;;;;;;;11.10;69.96;101970.25;2034290;29;20039;-69
2022/11/14 02:32:56;;;;;;;3.80;2.05;;;;;;;11.08;70.06;101967.00;2034455;29;20043;-69
2022/11/14 02:34:19;;;;;;;5.35;2.22;;;;;;;11.07;69.88;101960.00;2042345;29;20040;-69
2022/11/14 02:35:42;;;;;;;5.72;2.50;;;;;;;11.09;70.34;101969.41;2042700;29;20407;-69
2022/11/14 02:37:02;;;;;;;4.03;2.50;;;;;;;11.09;70.35;101963.22;2042217;29;20031;-69
2022/11/14 02:38:24;;;;;;;7.40;2.40;;;;;;;11.10;70.48;101964.88;2041441;29;20035;-70
2022/11/14 02:39:45;;;;;;;5.43;2.20;;;;;;;11.11;70.25;101971.88;2040710;29;20047;-69
2022/11/14 02:41:10;;;;;;;7.28;2.90;;;;;;;11.12;70.54;101958.16;2033914;29;20048;-69
2022/11/14 02:42:31;;;;;;;4.80;2.40;;;;;;;11.13;70.52;101961.69;2033786;29;20046;-69
2022/11/14 02:43:56;;;;;;;7.13;1.98;;;;;;;11.11;70.35;101966.50;2033689;29;20048;-69
2022/11/14 02:45:20;;;;;;;4.95;2.20;;;;;;;11.08;69.94;101964.31;2033749;29;20071;-69
2022/11/14 02:46:42;;;;;;;4.95;2.35;;;;;;;11.08;70.08;101961.63;2040881;29;20043;-70
2022/11/14 02:48:08;;;;;;;5.07;2.85;;;;;;;11.06;70.11;101969.09;2033240;29;20036;-69
2022/11/14 02:49:29;;;;;;;4.35;2.10;;;;;;;11.07;70.20;101965.38;2033175;29;20044;-69
2022/11/14 02:50:52;;;;;;;5.65;2.70;;;;;;;11.05;69.78;101959.41;2031142;29;20432;-69
2022/11/14 02:52:16;;;;;;;4.97;2.55;;;;;;;11.05;69.76;101962.91;2034614;29;20036;-69
2022/11/14 02:53:40;;;;;;;4.03;2.08;;;;;;;11.05;70.04;101957.53;2034288;29;20484;-69
2022/11/14 02:55:03;;;;;;;4.50;2.40;;;;;;;11.04;70.31;101958.59;2029116;29;20049;-70
2022/11/14 02:56:27;;;;;;;5.57;2.55;;;;;;;11.05;70.50;101967.50;2032122;29;20051;-69
2022/11/14 02:57:47;;;;;;;6.15;2.25;;;;;;;11.06;70.06;101958.34;2034919;29;20052;-69
2022/11/14 02:59:08;;;;;;;3.20;1.90;;;;;;;11.04;69.99;101971.25;2033921;29;20051;-69
2022/11/14 03:00:29;;;;;;;4.22;2.35;;;;;;;11.00;69.90;101964.72;2028856;29;20497;-69
2022/11/14 03:01:55;;;;;;;6.18;2.15;;;;;;;10.96;69.73;101969.78;2028908;29;20040;-69
2022/11/14 03:03:16;;;;;;;5.70;1.98;;;;;;;10.94;70.07;101954.94;2031918;29;20036;-69
2022/11/14 03:04:36;;;;;;;5.38;2.10;;;;;;;10.94;69.85;101952.25;2034488;29;20040;-69
2022/11/14 03:06:01;;;;;;;2.70;1.23;;;;;;;10.94;70.04;101960.31;2034860;29;20036;-70
2022/11/14 03:07:22;;;;;;;9.55;2.05;;;;;;;10.90;69.88;101966.19;2034266;29;20044;-69
2022/11/14 03:08:46;;;;;;;3.78;1.73;;;;;;;10.92;69.88;101973.22;2033554;29;20052;-69
2022/11/14 03:10:08;;;;;;;5.30;2.13;;;;;;;10.91;69.79;101972.41;2032928;29;20036;-69
2022/11/14 03:11:33;;;;;;;3.28;1.92;;;;;;;10.90;69.71;101965.38;2032860;29;20579;-69
2022/11/14 03:12:57;;;;;;;6.75;2.20;;;;;;;10.89;69.89;101964.56;2036101;29;20040;-69
2022/11/14 03:14:18;;;;;;;3.63;2.05;;;;;;;10.89;69.50;101969.94;2037921;29;20051;-69
2022/11/14 03:15:40;;;;;;;2.88;1.73;;;;;;;10.88;69.74;101973.72;2033730;29;20446;-69
2022/11/14 03:17:05;;;;;;;6.65;1.83;;;;;;;10.85;70.09;101968.00;2032894;29;20039;-69
2022/11/14 03:18:31;;;;;;;4.80;2.13;;;;;;;10.85;70.09;101974.19;2033235;29;20040;-69
2022/11/14 03:19:53;;;;;;;3.42;1.70;;;;;;;10.83;69.95;101965.53;2032240;29;20052;-69
2022/11/14 03:21:20;;;;;;;3.20;1.75;;;;;;;10.82;70.01;101969.31;2039091;29;20040;-70
2022/11/14 03:22:40;;;;;;;3.72;1.73;;;;;;;10.82;70.23;101952.34;2033838;29;20048;-70
2022/11/14 03:24:02;;;;;;;3.15;1.70;;;;;;;10.80;70.04;101959.84;2034174;29;20039;-69
2022/11/14 03:25:22;;;;;;;4.15;2.22;;;;;;;10.79;70.26;101964.41;2034217;29;20039;-67
2022/11/14 03:26:46;;;;;;;8.63;2.25;;;;;;;10.71;70.17;101958.63;2034248;29;20540;-69
2022/11/14 03:28:07;;;;;;;4.22;2.10;;;;;;;10.71;70.34;101959.44;2034358;29;20627;-69
2022/11/14 03:29:27;;;;;;;3.08;1.60;;;;;;;10.68;70.17;101957.22;2034048;29;20405;-69
2022/11/14 03:30:48;;;;;;;5.72;2.03;;;;;;;10.71;70.18;101956.75;2023068;29;20044;-70
2022/11/14 03:32:10;;;;;;;5.00;2.03;;;;;;;10.73;70.21;101960.00;2025576;29;20040;-69
2022/11/14 03:33:36;;;;;;;2.83;1.80;;;;;;;10.74;70.40;101953.56;2034088;29;20040;-69
2022/11/14 03:34:57;;;;;;;8.50;1.95;;;;;;;10.74;69.96;101955.44;2025689;29;20092;-69
2022/11/14 03:36:20;;;;;;;6.70;1.90;;;;;;;10.69;69.56;101966.94;2030946;29;20040;-69
2022/11/14 03:37:46;;;;;;;4.80;2.10;;;;;;;10.67;69.92;101959.09;2033624;29;20055;-69
2022/11/14 03:39:09;;;;;;;6.90;2.10;;;;;;;10.67;70.00;101950.22;2033829;29;20051;-69
2022/11/14 03:40:33;;;;;;;6.85;2.78;;;;;;;10.59;69.80;101964.06;2033330;29;20040;-69
2022/11/14 03:41:54;;;;;;;3.72;2.08;;;;;;;10.58;70.15;101949.81;2035699;29;20440;-70
2022/11/14 03:43:17;;;;;;;4.95;2.25;;;;;;;10.59;70.38;101956.00;2034710;29;20047;-70
2022/11/14 03:44:37;;;;;;;4.57;2.22;;;;;;;10.60;70.08;101945.03;2043212;29;20090;-69
2022/11/14 03:46:18;;;;;;;4.30;2.17;;;;;;;10.61;70.54;101946.63;2040589;29;20031;-69
2022/11/14 03:47:40;;;;;;;4.40;2.20;;;;;;;10.62;70.32;101942.06;2040973;29;20043;-69
2022/11/14 03:49:04;;;;;;;6.13;2.33;;;;;;;10.64;70.81;101948.03;2040549;29;20034;-70
2022/11/14 03:50:27;;;;;;;3.92;1.98;;;;;;;10.65;70.62;101950.47;2038436;29;20488;-70
2022/11/14 03:51:49;;;;;;;5.93;2.33;;;;;;;10.67;70.79;101944.84;2038025;29;20484;-70
2022/11/14 03:53:12;;;;;;;4.38;2.33;;;;;;;10.67;70.89;101944.84;2039989;29;20044;-70
2022/11/14 03:54:35;;;;;;;6.85;2.47;;;;;;;10.66;70.63;101951.31;2041482;29;20040;-70
2022/11/14 03:55:59;;;;;;;6.38;2.38;;;;;;;10.65;70.39;101960.41;2040913;29;20058;-70
2022/11/14 03:57:20;;;;;;;3.47;1.70;;;;;;;10.61;70.19;101943.13;2033551;29;20527;-70
2022/11/14 03:58:41;;;;;;;12.23;2.00;;;;;;;10.57;69.85;101939.31;2038936;29;20169;-70
2022/11/14 04:00:09;;;;;;;6.18;2.20;;;;;;;10.57;69.93;101936.63;2041466;29;20035;-70
2022/11/14 04:01:33;;;;;;;6.00;2.10;;;;;;;10.54;70.09;101931.72;2039524;29;20047;-69
2022/11/14 04:02:54;;;;;;;7.22;3.05;;;;;;;10.53;69.56;101935.47;2041551;29;20035;-69
2022/11/14 04:04:18;;;;;;;8.73;3.03;;;;;;;10.51;69.61;101937.59;2041325;29;20052;-69
2022/11/14 04:05:39;;;;;;;5.07;2.50;;;;;;;10.51;69.40;101940.28;2041487;29;20046;-70
2022/11/14 04:07:02;;;;;;;5.75;2.33;;;;;;;10.50;69.77;101934.09;2041821;29;20044;-69
2022/11/14 04:08:26;;;;;;;6.03;2.38;;;;;;;10.52;69.55;101941.91;2033280;29;20051;-69
2022/11/14 04:09:47;;;;;;;5.57;2.45;;;;;;;10.46;69.73;101932.13;2039077;29;20039;-69
2022/11/14 04:11:09;;;;;;;5.20;2.20;;;;;;;10.46;69.67;101921.38;2042197;29;20050;-69
2022/11/14 04:12:36;;;;;;;7.35;2.95;;;;;;;10.45;69.42;101928.63;2040320;29;20048;-69
2022/11/14 04:14:01;;;;;;;5.07;2.30;;;;;;;10.46;69.19;101937.50;2035512;29;20032;-69
2022/11/14 04:15:27;;;;;;;5.43;2.10;;;;;;;10.42;69.68;101935.31;2032506;29;20060;-69
2022/11/14 04:16:48;;;;;;;7.78;1.90;;;;;;;10.41;69.71;101924.81;2032774;29;20059;-69
2022/11/14 04:18:15;;;;;;;6.45;2.70;;;;;;;10.38;69.80;101920.72;2032891;29;20048;-70
2022/11/14 04:19:36;;;;;;;8.07;2.80;;;;;;;10.38;69.67;101915.34;2033174;29;20043;-70
2022/11/14 04:21:00;;;;;;;9.57;3.15;;;;;;;10.40;69.99;101913.25;2024609;29;20043;-70
2022/11/14 04:22:20;;;;;;;5.63;2.63;;;;;;;10.38;69.74;101915.34;2030181;29;20400;-69
2022/11/14 04:23:44;;;;;;;7.40;2.28;;;;;;;10.37;69.89;101919.09;2025570;29;20040;-70
2022/11/14 04:25:07;;;;;;;5.45;2.90;;;;;;;10.37;69.75;101904.81;2031110;29;20032;-70
2022/11/14 04:26:28;;;;;;;5.05;2.65;;;;;;;10.40;69.90;101909.72;2029208;29;20032;-70
2022/11/14 04:27:50;;;;;;;5.35;2.55;;;;;;;10.40;70.14;101907.88;2038407;29;20044;-70
2022/11/14 04:29:11;;;;;;;6.50;2.72;;;;;;;10.41;70.13;101908.69;2041243;29;20201;-70
2022/11/14 04:30:32;;;;;;;7.38;3.10;;;;;;;10.35;70.32;101899.72;2033502;29;20428;-70
2022/11/14 04:31:53;;;;;;;10.02;3.08;;;;;;;10.30;70.45;101904.19;2038518;29;20039;-70
2022/11/14 04:33:14;;;;;;;8.30;2.83;;;;;;;10.29;70.41;101900.69;2041743;29;20044;-69
2022/11/14 04:34:38;;;;;;;5.13;2.97;;;;;;;10.31;70.59;101892.34;2041595;29;20051;-70
2022/11/14 04:36:01;;;;;;;6.53;2.47;;;;;;;10.32;70.99;101892.13;2033474;29;20036;-69
2022/11/14 04:37:27;;;;;;;10.25;3.22;;;;;;;10.35;70.89;101904.28;2038804;29;20054;-69
2022/11/14 04:38:53;;;;;;;6.70;3.08;;;;;;;10.39;70.63;101900.84;2041201;29;20535;-69
2022/11/14 04:40:17;;;;;;;8.82;2.50;;;;;;;10.41;70.58;101898.72;2033365;29;20408;-69
2022/11/14 04:41:40;;;;;;;6.50;3.00;;;;;;;10.44;70.87;101903.63;2037570;29;20507;-69
2022/11/14 04:43:01;;;;;;;6.55;3.00;;;;;;;10.46;70.50;101903.34;2040927;29;20047;-69
2022/11/14 04:44:22;;;;;;;10.23;3.28;;;;;;;10.45;70.80;101912.50;2040283;29;20048;-69
2022/11/14 04:45:43;;;;;;;4.13;2.22;;;;;;;10.43;70.46;101896.63;2040060;29;20499;-69
2022/11/14 04:47:03;;;;;;;6.68;2.72;;;;;;;10.42;70.31;101899.53;2039932;29;20044;-69
2022/11/14 04:48:25;;;;;;;11.95;3.35;;;;;;;10.38;69.95;101901.09;2040178;29;20047;-69
2022/11/14 04:49:48;;;;;;;10.30;3.35;;;;;;;10.33;69.91;101891.06;2040049;29;20047;-69
2022/11/14 04:51:09;;;;;;;8.63;3.15;;;;;;;10.32;69.89;101899.38;2040144;29;20050;-69
2022/11/14 04:52:30;;;;;;;6.90;2.83;;;;;;;10.30;69.65;101891.53;2040333;29;20043;-69
2022/11/14 04:53:53;;;;;;;5.18;2.92;;;;;;;10.29;69.94;101889.94;2040645;29;20036;-69
2022/11/14 04:55:17;;;;;;;9.10;3.15;;;;;;;10.31;69.89;101893.19;2040097;29;20431;-70
2022/11/14 04:56:38;;;;;;;5.63;3.00;;;;;;;10.31;70.07;101887.81;2034473;29;20036;-69
2022/11/14 04:57:58;;;;;;;9.60;3.20;;;;;;;10.31;69.84;101889.66;2035685;29;20043;-69
2022/11/14 04:59:22;;;;;;;7.18;3.22;;;;;;;10.31;70.05;101892.34;2041597;29;20039;-69
2022/11/14 05:00:43;;;;;;;9.45;3.42;;;;;;;10.30;69.86;101885.34;2033248;29;20043;-69
2022/11/14 05:02:06;;;;;;;6.68;3.30;;;;;;;10.29;69.83;101884.53;2038480;29;20035;-69
2022/11/14 05:03:31;;;;;;;9.23;3.28;;;;;;;10.28;69.66;101882.94;2041671;29;20298;-69
2022/11/14 05:04:55;;;;;;;8.70;3.20;;;;;;;10.28;70.15;101888.31;2040985;29;20055;-67
2022/11/14 05:06:16;;;;;;;9.20;3.60;;;;;;;10.28;70.04;101884.81;2041247;29;20032;-69
2022/11/14 05:07:39;;;;;;;6.05;3.25;;;;;;;10.30;70.20;101888.84;2041651;29;20043;-69
2022/11/14 05:09:00;;;;;;;14.88;3.40;;;;;;;10.31;70.40;101887.81;2040693;29;20040;-69
2022/11/14 05:10:24;;;;;;;8.82;3.20;;;;;;;10.31;70.64;101890.50;2040984;29;20047;-69
2022/11/14 05:11:48;;;;;;;10.25;3.08;;;;;;;10.32;70.84;101884.06;2039559;29;20057;-69
2022/11/14 05:13:11;;;;;;;12.38;3.90;;;;;;;10.31;70.70;101887.81;2035286;29;20423;-68
2022/11/14 05:14:32;;;;;;;8.95;3.45;;;;;;;10.30;70.95;101891.53;2036934;29;20039;-69
2022/11/14 05:15:53;;;;;;;9.98;3.85;;;;;;;10.29;70.61;101884.53;2034431;29;20040;-69
2022/11/14 05:17:14;;;;;;;8.48;3.80;;;;;;;10.27;70.51;101883.97;2039999;29;20035;-69
2022/11/14 05:18:35;;;;;;;8.40;2.67;;;;;;;10.26;70.56;101884.19;2031858;29;20036;-70
2022/11/14 05:19:59;;;;;;;6.70;3.58;;;;;;;10.23;70.89;101874.75;2032385;29;20499;-69
2022/11/14 05:21:22;;;;;;;7.22;3.28;;;;;;;10.18;70.70;101872.78;2039615;29;20399;-67
2022/11/14 05:22:44;;;;;;;13.63;3.35;;;;;;;10.19;70.87;101870.91;2039940;29;20048;-69
2022/11/14 05:24:08;;;;;;;14.38;3.95;;;;;;;10.19;70.81;101876.28;2039499;29;20036;-74
2022/11/14 05:25:28;;;;;;;8.82;3.78;;;;;;;10.19;70.69;101889.72;2038354;29;20396;-72
2022/11/14 05:26:54;;;;;;;11.20;3.13;;;;;;;10.16;70.24;101884.84;2033960;29;20062;-74
2022/11/14 05:28:17;;;;;;;10.13;4.00;;;;;;;10.14;70.43;101882.38;2039424;29;20039;-74
2022/11/14 05:29:38;;;;;;;10.02;3.70;;;;;;;10.14;70.22;101874.31;2038988;29;20054;-72
2022/11/14 05:31:06;;;;;;;8.65;3.30;;;;;;;10.11;70.38;101885.56;2039519;29;20044;-72
2022/11/14 05:32:26;;;;;;;7.00;3.00;;;;;;;10.11;70.84;101872.13;2027241;29;20096;-70
2022/11/14 05:33:47;;;;;;;14.43;3.72;;;;;;;10.08;70.55;101877.16;2031063;29;20048;-73
2022/11/14 05:35:10;;;;;;;7.72;3.83;;;;;;;10.06;70.52;101879.28;2039505;29;20044;-71
2022/11/14 05:36:31;;;;;;;13.43;4.43;;;;;;;10.04;70.81;101874.16;2039733;29;20043;-69
2022/11/14 05:37:55;;;;;;;7.82;3.17;;;;;;;10.05;70.60;101872.28;2040039;29;20063;-71
2022/11/14 05:39:18;;;;;;;7.47;3.75;;;;;;;10.05;70.79;101874.97;2039165;29;20052;-71
2022/11/14 05:40:39;;;;;;;11.65;5.28;;;;;;;10.06;70.83;101876.63;2034210;29;20056;-72
2022/11/14 05:42:02;;;;;;;8.02;3.92;;;;;;;10.08;71.67;101877.16;2038394;29;20483;-72
2022/11/14 05:43:29;;;;;;;6.90;2.95;;;;;;;10.09;71.03;101884.19;2038439;29;20066;-71
2022/11/14 05:44:50;;;;;;;13.80;4.45;;;;;;;10.08;71.49;101877.97;2038615;29;20050;-72
2022/11/14 05:46:14;;;;;;;6.82;3.47;;;;;;;10.08;71.24;101887.91;2027835;29;20095;-71
2022/11/14 05:47:38;;;;;;;8.70;3.90;;;;;;;10.05;71.45;101889.22;2036684;29;20031;-71
2022/11/14 05:48:59;;;;;;;9.23;3.80;;;;;;;10.05;71.28;101886.53;2039305;29;20044;-69
2022/11/14 05:50:22;;;;;;;8.63;3.67;;;;;;;10.00;71.32;101893.69;2038527;29;20291;-71
2022/11/14 05:51:45;;;;;;;10.35;4.38;;;;;;;9.98;71.17;101884.00;2030827;29;20767;-71
2022/11/14 05:53:05;;;;;;;7.75;3.63;;;;;;;9.99;71.47;101879.41;2030487;29;20040;-70
2022/11/14 05:54:26;;;;;;;10.60;4.28;;;;;;;9.96;71.62;101880.75;2039051;29;20040;-76
2022/11/14 05:55:49;;;;;;;6.47;3.15;;;;;;;9.97;71.94;101887.75;2038239;29;20100;-73
2022/11/14 05:57:10;;;;;;;7.68;3.47;;;;;;;9.99;72.00;101884.78;2037941;29;20051;-70
2022/11/14 05:58:36;;;;;;;8.40;3.70;;;;;;;10.01;71.74;101881.88;2040285;29;20056;-69
2022/11/14 05:59:58;;;;;;;9.73;4.20;;;;;;;10.02;71.32;101892.38;2040113;29;20044;-71
2022/11/14 06:01:19;;;;;;;8.07;3.42;;;;;;;9.95;71.41;101889.84;2040077;29;20043;-70
2022/11/14 06:02:39;;;;;;;12.30;4.80;;;;;;;9.93;71.82;101889.28;2040037;29;20122;-71
2022/11/14 06:04:00;;;;;;;12.93;4.20;;;;;;;9.90;71.96;101884.41;2040179;29;20044;-74
2022/11/14 06:05:22;;;;;;;12.18;4.45;;;;;;;9.94;72.00;101887.41;2037539;29;20036;-71
2022/11/14 06:06:43;;;;;;;10.15;4.28;;;;;;;9.97;72.18;101886.94;2039840;29;20040;-70
2022/11/14 06:08:06;;;;;;;10.40;4.20;;;;;;;9.97;72.23;101887.75;2040359;29;20056;-75
2022/11/14 06:09:27;;;;;;;10.70;4.50;;;;;;;9.99;72.15;101887.47;2033628;29;20624;-72
2022/11/14 06:10:50;;;;;;;7.70;3.60;;;;;;;10.01;72.16;101882.69;2024603;29;20413;-73
2022/11/14 06:12:18;;;;;;;10.43;4.47;;;;;;;10.03;72.60;101893.22;2032182;29;20074;-72
2022/11/14 06:13:42;;;;;;;10.52;4.50;;;;;;;9.99;72.98;101884.78;2039802;29;20794;-73
2022/11/14 06:15:05;;;;;;;9.35;3.65;;;;;;;9.99;72.88;101890.16;2040253;29;20274;-73
2022/11/14 06:16:26;;;;;;;9.55;4.28;;;;;;;10.00;73.37;101875.69;2040421;29;20612;-73
2022/11/14 06:17:51;;;;;;;11.35;4.20;;;;;;;9.97;73.14;101882.38;2040706;29;20401;-72
2022/11/14 06:19:12;;;;;;;12.30;4.55;;;;;;;9.99;73.71;101884.78;2040649;29;20036;-72
2022/11/14 06:20:32;;;;;;;6.78;3.17;;;;;;;10.00;73.85;101896.38;2032140;29;20036;-73
2022/11/14 06:21:53;;;;;;;12.68;4.07;;;;;;;9.94;73.55;101885.53;2037285;29;20042;-73
2022/11/14 06:23:14;;;;;;;10.70;4.22;;;;;;;9.92;73.39;101884.94;2039681;29;20055;-72
2022/11/14 06:24:38;;;;;;;14.23;4.20;;;;;;;9.91;74.04;101888.72;2039929;29;20039;-72
2022/11/14 06:26:05;;;;;;;9.63;4.03;;;;;;;9.89;73.44;101882.75;2039772;29;20044;-73